Terminal Aerodrome Forecast
Issued by NWS Cleveland, OH

Home | Current Version | Previous Version | Graphics & Text | Print | Product List | Glossary On
Versions: 1 2 3 4 5 6 7 8 9 10 11 12 13 14 15 16 17
000
FTUS41 KCLE 231100
TAFMFD
TAF
KMFD 231126Z 2312/2412 30008KT P6SM BKN015 OVC025
      TEMPO 2313/2315 SCT025 BKN035
     FM231500 33010G18KT P6SM SKC
     FM232300 01005KT P6SM SCT250
     FM240300 VRB03KT P6SM SCT100 BKN250=

USA.gov is the U.S. government's official web portal to all federal, state and local government web resources and services.